createdAt,value
2017-12-21T00:01:30.504Z,5.67
2017-12-21T00:03:58.768Z,5.80
2017-12-21T00:06:27.783Z,5.77
2017-12-21T00:08:56.827Z,5.70
2017-12-21T00:11:25.084Z,5.63
2017-12-21T00:13:54.121Z,5.40
2017-12-21T00:16:22.352Z,4.80
2017-12-21T00:18:50.603Z,5.40
2017-12-21T00:21:18.871Z,5.47
2017-12-21T00:23:47.120Z,5.30
2017-12-21T00:26:15.356Z,5.20
2017-12-21T00:28:43.615Z,5.37
2017-12-21T00:31:12.661Z,6.00
2017-12-21T00:33:40.945Z,5.47
2017-12-21T00:36:09.282Z,5.87
2017-12-21T00:38:38.252Z,5.77
2017-12-21T00:41:06.553Z,6.27
2017-12-21T00:43:34.799Z,5.77
2017-12-21T00:46:12.538Z,5.80
2017-12-21T00:48:40.901Z,6.03
2017-12-21T00:51:10.385Z,5.97
2017-12-21T00:53:38.685Z,6.33
2017-12-21T00:56:07.882Z,6.20
2017-12-21T00:58:36.220Z,6.40
2017-12-21T01:01:04.476Z,6.27
2017-12-21T01:03:32.742Z,6.20
2017-12-21T01:06:01.003Z,6.57
2017-12-21T01:08:29.246Z,6.30
2017-12-21T01:10:58.300Z,6.73
2017-12-21T01:13:26.681Z,6.17
2017-12-21T01:15:55.739Z,7.27
2017-12-21T01:18:23.987Z,7.07
2017-12-21T01:20:52.247Z,8.13
2017-12-21T01:23:20.498Z,6.80
2017-12-21T01:25:48.747Z,8.20
2017-12-21T01:28:16.995Z,7.80
2017-12-21T01:30:46.015Z,7.03
2017-12-21T01:33:15.052Z,7.20
2017-12-21T01:35:43.317Z,7.37
2017-12-21T01:38:11.622Z,7.17
2017-12-21T01:40:40.035Z,7.13
2017-12-21T01:43:08.359Z,6.60
2017-12-21T01:45:37.427Z,7.57
2017-12-21T01:48:05.992Z,7.50
2017-12-21T01:50:34.256Z,8.27
2017-12-21T01:53:03.268Z,7.67
2017-12-21T01:55:32.294Z,7.87
2017-12-21T01:58:00.543Z,8.23
2017-12-21T02:00:28.819Z,8.83
2017-12-21T02:02:57.065Z,8.03
2017-12-21T02:05:25.388Z,8.47
2017-12-21T02:07:53.627Z,8.67
2017-12-21T02:10:21.873Z,7.47
2017-12-21T02:12:50.120Z,8.20
2017-12-21T02:15:18.451Z,7.83
2017-12-21T02:17:46.722Z,7.63
2017-12-21T02:20:14.959Z,8.10
2017-12-21T02:22:44.562Z,7.73
2017-12-21T02:25:12.877Z,7.07
2017-12-21T02:27:41.927Z,8.37
2017-12-21T02:30:10.214Z,8.53
2017-12-21T02:32:38.559Z,8.80
2017-12-21T02:35:06.852Z,8.83
2017-12-21T02:37:35.134Z,8.03
2017-12-21T02:40:04.903Z,8.43
2017-12-21T02:42:33.162Z,8.13
2017-12-21T02:45:02.197Z,8.50
2017-12-21T02:47:30.456Z,8.70
2017-12-21T02:49:59.464Z,9.00
2017-12-21T02:52:28.473Z,7.80
2017-12-21T02:54:57.504Z,7.20
2017-12-21T02:57:25.788Z,7.93
2017-12-21T02:59:54.059Z,7.63
2017-12-21T03:02:23.090Z,7.10
2017-12-21T03:04:51.353Z,7.97
2017-12-21T03:07:20.369Z,7.27
2017-12-21T03:09:48.615Z,7.67
2017-12-21T03:12:16.874Z,7.57
2017-12-21T03:14:45.147Z,6.67
2017-12-21T03:17:13.420Z,5.97
2017-12-21T03:19:42.488Z,7.07
2017-12-21T03:22:10.772Z,6.77
2017-12-21T03:24:39.187Z,6.40
2017-12-21T03:27:07.535Z,6.77
2017-12-21T03:29:35.862Z,6.40
2017-12-21T03:32:04.169Z,6.23
2017-12-21T03:34:33.166Z,5.40
2017-12-21T03:37:02.203Z,5.67
2017-12-21T03:39:31.379Z,5.77
2017-12-21T03:41:59.614Z,6.47
2017-12-21T03:44:27.931Z,6.23
2017-12-21T03:46:56.231Z,5.60
2017-12-21T03:49:25.276Z,5.90
2017-12-21T03:51:53.511Z,6.33
2017-12-21T03:54:21.774Z,6.10
2017-12-21T03:56:50.026Z,6.13
2017-12-21T03:59:18.276Z,5.67
2017-12-21T04:01:46.526Z,6.13
2017-12-21T04:04:14.790Z,6.70
2017-12-21T04:06:43.036Z,7.33
2017-12-21T04:09:11.334Z,6.57
2017-12-21T04:11:39.667Z,6.70
2017-12-21T04:14:07.970Z,6.87
2017-12-21T04:16:37.786Z,6.13
2017-12-21T04:19:06.859Z,5.60
2017-12-21T04:21:35.113Z,6.60
2017-12-21T04:24:03.358Z,6.60
2017-12-21T04:26:32.371Z,7.07
2017-12-21T04:29:01.408Z,6.10
2017-12-21T04:31:29.664Z,6.80
2017-12-21T04:33:58.698Z,6.33
2017-12-21T04:36:27.061Z,6.80
2017-12-21T04:38:56.083Z,6.33
2017-12-21T04:41:24.322Z,6.33
2017-12-21T04:43:52.597Z,6.63
2017-12-21T04:46:20.835Z,6.60
2017-12-21T04:48:49.854Z,6.80
2017-12-21T04:51:18.857Z,6.37
2017-12-21T04:53:47.872Z,6.13
2017-12-21T04:56:16.119Z,6.80
2017-12-21T04:58:44.375Z,6.60
2017-12-21T05:01:12.626Z,6.60
2017-12-21T05:03:41.713Z,6.57
2017-12-21T05:06:10.080Z,6.30
2017-12-21T05:08:38.420Z,7.17
2017-12-21T05:11:06.720Z,7.50
2017-12-21T05:13:35.034Z,7.33
2017-12-21T05:16:03.282Z,7.27
2017-12-21T05:18:32.305Z,7.43
2017-12-21T05:21:01.419Z,6.67
2017-12-21T05:23:30.437Z,7.57
2017-12-21T05:25:58.682Z,6.67
2017-12-21T05:28:26.955Z,7.03
2017-12-21T05:30:55.223Z,7.07
2017-12-21T05:33:24.237Z,6.67
2017-12-21T05:35:52.490Z,7.00
2017-12-21T05:38:20.731Z,6.30
2017-12-21T05:40:48.989Z,6.97
2017-12-21T05:43:17.242Z,6.77
2017-12-21T05:45:46.263Z,7.17
2017-12-21T05:48:14.510Z,6.37
2017-12-21T05:50:42.782Z,7.43
2017-12-21T05:53:11.123Z,7.17
2017-12-21T05:55:40.252Z,6.80
2017-12-21T05:58:08.580Z,7.33
2017-12-21T06:00:36.942Z,6.03
2017-12-21T06:03:05.187Z,6.83
2017-12-21T06:05:33.455Z,5.93
2017-12-21T06:08:01.724Z,6.13
2017-12-21T06:10:30.067Z,6.03
2017-12-21T06:12:59.111Z,5.67
2017-12-21T06:15:27.371Z,6.30
2017-12-21T06:17:56.389Z,6.33
2017-12-21T06:20:24.657Z,6.10
2017-12-21T06:22:52.928Z,6.67
2017-12-21T06:25:21.192Z,6.27
2017-12-21T06:27:49.427Z,7.67
2017-12-21T06:30:19.049Z,7.17
2017-12-21T06:32:48.060Z,7.53
2017-12-21T06:35:16.311Z,7.40
2017-12-21T06:37:44.563Z,7.20
2017-12-21T06:40:12.880Z,7.50
2017-12-21T06:42:41.172Z,6.33
2017-12-21T06:45:09.550Z,6.93
2017-12-21T06:47:37.931Z,6.47
2017-12-21T06:50:06.200Z,7.30
2017-12-21T06:52:34.467Z,6.33
2017-12-21T06:55:03.486Z,6.50
2017-12-21T06:57:31.735Z,5.50
2017-12-21T06:59:59.995Z,6.67
2017-12-21T07:02:28.247Z,5.60
2017-12-21T07:04:57.280Z,5.30
2017-12-21T07:07:25.584Z,5.47
2017-12-21T07:09:53.815Z,4.97
2017-12-21T07:12:22.846Z,5.23
2017-12-21T07:14:51.909Z,4.87
2017-12-21T07:17:20.115Z,5.33
2017-12-21T07:19:48.388Z,4.40
2017-12-21T07:22:16.619Z,4.93
2017-12-21T07:24:44.882Z,4.77
2017-12-21T07:27:13.307Z,4.87
2017-12-21T07:29:41.565Z,5.03
2017-12-21T07:32:09.892Z,4.97
2017-12-21T07:34:38.197Z,4.63
2017-12-21T07:37:06.477Z,4.93
2017-12-21T07:39:34.721Z,5.13
2017-12-21T07:42:02.975Z,4.90
2017-12-21T07:44:31.221Z,5.73
2017-12-21T07:46:59.486Z,5.13
2017-12-21T07:49:27.772Z,5.43
2017-12-21T07:51:56.036Z,6.47
2017-12-21T07:54:24.287Z,6.93
2017-12-21T07:56:52.539Z,6.43
2017-12-21T07:59:20.777Z,6.80
2017-12-21T08:01:49.026Z,6.60
2017-12-21T08:04:18.048Z,5.80
2017-12-21T08:06:46.318Z,5.57
2017-12-21T08:09:14.563Z,5.57
2017-12-21T08:11:44.307Z,5.20
2017-12-21T08:14:12.583Z,5.27
2017-12-21T08:16:40.851Z,5.07
2017-12-21T08:19:09.174Z,4.27
2017-12-21T08:21:37.467Z,6.67
2017-12-21T08:24:05.735Z,7.60
2017-12-21T08:26:33.990Z,5.80
2017-12-21T08:29:02.255Z,6.17
2017-12-21T08:31:31.275Z,6.63
2017-12-21T08:34:00.296Z,6.67
2017-12-21T08:36:28.543Z,7.30
2017-12-21T08:38:56.826Z,7.57
2017-12-21T08:41:25.142Z,6.77
2017-12-21T08:43:54.175Z,7.63
2017-12-21T08:46:22.418Z,7.23
2017-12-21T08:48:50.696Z,7.43
2017-12-21T08:51:18.944Z,7.03
2017-12-21T08:53:47.214Z,8.00
2017-12-21T08:56:15.514Z,6.30
2017-12-21T08:58:44.548Z,6.53
2017-12-21T09:01:12.834Z,6.97
2017-12-21T09:03:41.091Z,6.27
2017-12-21T09:06:09.391Z,6.10
2017-12-21T09:08:37.761Z,6.30
2017-12-21T09:11:06.936Z,4.37
2017-12-21T09:13:35.204Z,6.97
2017-12-21T09:16:03.443Z,6.83
2017-12-21T09:18:32.468Z,6.37
2017-12-21T09:21:00.711Z,6.43
2017-12-21T09:23:28.976Z,6.03
2017-12-21T09:25:57.250Z,5.20
2017-12-21T09:28:25.532Z,5.00
2017-12-21T09:30:53.795Z,5.47
2017-12-21T09:33:22.799Z,5.10
2017-12-21T09:35:51.827Z,4.73
2017-12-21T09:38:20.123Z,5.27
2017-12-21T09:40:48.423Z,5.20
2017-12-21T09:43:16.662Z,4.13
2017-12-21T09:45:44.985Z,5.50
2017-12-21T09:48:13.248Z,4.73
2017-12-21T09:50:42.316Z,4.53
2017-12-21T09:53:10.563Z,4.27
2017-12-21T09:55:39.669Z,4.27
2017-12-21T09:58:08.727Z,4.10
2017-12-21T10:00:37.131Z,4.17
2017-12-21T10:03:06.229Z,4.00
2017-12-21T10:05:35.718Z,4.50
2017-12-21T10:08:03.969Z,3.93
2017-12-21T10:10:32.239Z,4.03
2017-12-21T10:13:00.481Z,3.77
2017-12-21T10:15:28.758Z,4.53
2017-12-21T10:17:57.058Z,4.00
2017-12-21T10:20:25.342Z,4.07
2017-12-21T10:22:53.615Z,3.70
2017-12-21T10:25:22.731Z,4.17
2017-12-21T10:27:50.981Z,3.50
2017-12-21T10:30:19.291Z,3.03
2017-12-21T10:32:47.547Z,3.10
2017-12-21T10:35:15.802Z,3.00
2017-12-21T10:37:44.947Z,3.63
2017-12-21T10:40:13.289Z,3.70
2017-12-21T10:42:42.352Z,3.60
2017-12-21T10:45:10.635Z,3.87
2017-12-21T10:47:38.942Z,3.40
2017-12-21T10:50:08.022Z,3.50
2017-12-21T10:52:37.051Z,3.87
2017-12-21T10:55:09.608Z,3.83
2017-12-21T10:57:38.025Z,3.30
2017-12-21T11:00:07.108Z,4.23
2017-12-21T11:02:35.389Z,3.30
2017-12-21T11:05:04.387Z,3.73
2017-12-21T11:07:32.621Z,3.73
2017-12-21T11:10:00.869Z,3.70
2017-12-21T11:12:29.106Z,4.10
2017-12-21T11:14:57.412Z,4.00
2017-12-21T11:17:25.742Z,3.43
2017-12-21T11:19:54.363Z,3.30
2017-12-21T11:22:22.862Z,3.60
2017-12-21T11:24:51.117Z,3.60
2017-12-21T11:27:19.399Z,3.40
2017-12-21T11:29:47.652Z,3.37
2017-12-21T11:32:15.909Z,3.20
2017-12-21T11:34:44.143Z,3.53
2017-12-21T11:37:13.226Z,3.20
2017-12-21T11:39:41.513Z,3.63
2017-12-21T11:42:09.837Z,3.37
2017-12-21T11:44:39.001Z,3.17
2017-12-21T11:47:08.125Z,3.53
2017-12-21T11:49:37.195Z,3.50
2017-12-21T11:52:05.471Z,3.53
2017-12-21T11:54:33.715Z,3.47
2017-12-21T11:57:01.983Z,3.20
2017-12-21T11:59:30.272Z,4.10
2017-12-21T12:01:58.568Z,3.40
2017-12-21T12:04:26.855Z,3.70
2017-12-21T12:06:55.137Z,3.50
2017-12-21T12:09:23.383Z,3.87
2017-12-21T12:11:52.432Z,3.37
2017-12-21T12:14:20.676Z,3.43
2017-12-21T12:16:48.990Z,3.57
2017-12-21T12:19:17.267Z,3.00
2017-12-21T12:21:45.522Z,3.00
2017-12-21T12:24:14.910Z,3.53
2017-12-21T12:26:43.174Z,3.10
2017-12-21T12:29:11.469Z,3.43
2017-12-21T12:31:39.753Z,3.43
2017-12-21T12:34:08.124Z,2.80
2017-12-21T12:36:36.437Z,3.00
2017-12-21T12:39:06.759Z,2.83
2017-12-21T12:41:34.995Z,2.47
2017-12-21T12:44:03.272Z,2.50
2017-12-21T12:46:31.507Z,2.63
2017-12-21T12:49:00.560Z,2.87
2017-12-21T12:51:28.835Z,3.00
2017-12-21T12:53:57.123Z,2.60
2017-12-21T12:56:25.407Z,2.83
2017-12-21T12:58:53.682Z,2.57
2017-12-21T13:01:22.675Z,2.40
2017-12-21T13:03:52.440Z,3.17
2017-12-21T13:06:20.682Z,2.77
2017-12-21T13:08:50.294Z,2.93
2017-12-21T13:11:19.300Z,2.50
2017-12-21T13:13:47.566Z,2.90
2017-12-21T13:16:15.811Z,2.70
2017-12-21T13:18:44.065Z,3.00
2017-12-21T13:21:12.329Z,2.83
2017-12-21T13:23:40.604Z,2.80
2017-12-21T13:26:08.896Z,3.00
2017-12-21T13:28:37.179Z,3.03
2017-12-21T13:31:05.420Z,3.20
2017-12-21T13:33:35.187Z,3.23
2017-12-21T13:36:03.455Z,3.40
2017-12-21T13:38:31.710Z,4.20
2017-12-21T13:41:00.719Z,4.23
2017-12-21T13:43:29.747Z,4.10
2017-12-21T13:45:58.024Z,3.33
2017-12-21T13:48:27.131Z,3.43
2017-12-21T13:50:56.153Z,3.53
2017-12-21T13:53:24.433Z,3.60
2017-12-21T13:55:53.451Z,3.23
2017-12-21T13:58:21.715Z,3.60
2017-12-21T14:00:51.466Z,3.37
2017-12-21T14:03:19.749Z,3.40
2017-12-21T14:05:47.991Z,3.10
2017-12-21T14:08:16.437Z,3.10
2017-12-21T14:10:44.694Z,2.93
2017-12-21T14:13:12.977Z,2.70
2017-12-21T14:15:42.096Z,2.93
2017-12-21T14:18:11.237Z,2.70
2017-12-21T14:20:39.620Z,2.20
2017-12-21T14:23:08.005Z,2.30
2017-12-21T14:25:36.410Z,1.93
2017-12-21T14:28:04.867Z,1.90
2017-12-21T14:30:34.072Z,1.70
2017-12-21T14:33:02.343Z,1.93
2017-12-21T14:35:30.590Z,2.10
2017-12-21T14:37:58.895Z,1.90
2017-12-21T14:40:27.150Z,1.67
2017-12-21T14:42:56.174Z,1.50
2017-12-21T14:45:24.443Z,1.70
2017-12-21T14:47:53.454Z,1.60
2017-12-21T14:50:22.490Z,1.10
2017-12-21T14:52:50.740Z,1.60
2017-12-21T14:55:19.012Z,1.33
2017-12-21T14:57:47.264Z,1.63
2017-12-21T15:00:15.511Z,1.33
2017-12-21T15:02:44.543Z,1.40
2017-12-21T15:05:12.799Z,1.60
2017-12-21T15:07:41.830Z,1.50
2017-12-21T15:10:10.134Z,1.70
2017-12-21T15:12:38.456Z,1.30
2017-12-21T15:15:06.801Z,1.50
2017-12-21T15:17:35.087Z,1.50
2017-12-21T15:20:03.340Z,1.50
2017-12-21T15:22:31.591Z,1.40
2017-12-21T15:24:59.850Z,1.60
2017-12-21T15:27:28.119Z,1.57
2017-12-21T15:29:57.147Z,1.63
2017-12-21T15:32:25.406Z,1.97
2017-12-21T15:34:53.751Z,1.50
2017-12-21T15:37:22.013Z,1.87
2017-12-21T15:39:50.262Z,1.90
2017-12-21T15:42:18.532Z,2.10
2017-12-21T15:44:46.767Z,1.97
2017-12-21T15:47:16.169Z,1.60
2017-12-21T15:49:45.202Z,1.60
2017-12-21T15:52:13.478Z,1.50
2017-12-21T15:54:42.545Z,1.50
2017-12-21T15:57:11.583Z,1.70
2017-12-21T15:59:39.875Z,2.03
2017-12-21T16:02:08.940Z,1.53
2017-12-21T16:04:37.224Z,1.40
2017-12-21T16:07:05.490Z,1.77
2017-12-21T16:09:33.728Z,1.50
2017-12-21T16:12:02.039Z,1.33
2017-12-21T16:14:31.063Z,1.50
2017-12-21T16:16:59.336Z,1.70
2017-12-21T16:19:28.380Z,1.30
2017-12-21T16:21:56.718Z,1.60
2017-12-21T16:24:24.910Z,1.80
2017-12-21T16:26:53.167Z,2.13
2017-12-21T16:29:22.191Z,2.37
2017-12-21T16:31:50.462Z,2.97
2017-12-21T16:34:18.708Z,2.17
2017-12-21T16:36:46.970Z,2.90
2017-12-21T16:39:15.223Z,4.73
2017-12-21T16:41:43.486Z,3.23
2017-12-21T16:44:11.756Z,3.30
2017-12-21T16:46:40.786Z,2.70
2017-12-21T16:49:09.045Z,2.67
2017-12-21T16:51:37.339Z,2.73
2017-12-21T16:54:06.375Z,2.00
2017-12-21T16:56:34.651Z,1.80
2017-12-21T16:59:02.891Z,2.10
2017-12-21T17:01:31.130Z,2.30
2017-12-21T17:03:59.422Z,2.73
2017-12-21T17:06:27.687Z,3.03
2017-12-21T17:08:56.753Z,2.90
2017-12-21T17:11:25.005Z,3.43
2017-12-21T17:13:54.034Z,8.50
2017-12-21T17:16:22.280Z,4.93
2017-12-21T17:18:51.309Z,2.70
2017-12-21T17:21:19.561Z,2.90
2017-12-21T17:23:47.863Z,2.93
2017-12-21T17:26:16.881Z,2.70
2017-12-21T17:28:45.919Z,2.40
2017-12-21T17:31:14.164Z,2.50
2017-12-21T17:33:43.187Z,3.47
2017-12-21T17:36:11.440Z,3.93
2017-12-21T17:38:39.793Z,3.83
2017-12-21T17:41:08.989Z,3.00
2017-12-21T17:43:37.275Z,3.30
2017-12-21T17:46:05.531Z,3.77
2017-12-21T17:48:33.827Z,2.80
2017-12-21T17:51:02.870Z,3.60
2017-12-21T17:53:31.151Z,3.53
2017-12-21T17:55:59.403Z,3.50
2017-12-21T17:58:27.685Z,3.10
2017-12-21T18:00:55.934Z,3.10
2017-12-21T18:03:24.236Z,2.70
2017-12-21T18:05:52.525Z,2.83
2017-12-21T18:08:20.775Z,2.33
2017-12-21T18:10:49.030Z,3.00
2017-12-21T18:13:17.307Z,2.53
2017-12-21T18:15:45.593Z,2.70
2017-12-21T18:18:13.859Z,3.17
2017-12-21T18:20:42.117Z,3.27
2017-12-21T18:23:10.401Z,2.63
2017-12-21T18:25:38.676Z,3.30
2017-12-21T18:28:07.686Z,3.10
2017-12-21T18:30:42.132Z,3.20
2017-12-21T18:33:10.421Z,2.77
2017-12-21T18:35:39.463Z,2.17
2017-12-21T18:38:08.125Z,2.77
2017-12-21T18:40:36.405Z,2.90
2017-12-21T18:43:05.615Z,2.53
2017-12-21T18:45:34.684Z,2.70
2017-12-21T18:48:02.930Z,2.03
2017-12-21T18:50:31.189Z,2.30
2017-12-21T18:53:00.218Z,2.40
2017-12-21T18:55:28.526Z,3.10
2017-12-21T18:57:56.778Z,2.70
2017-12-21T19:00:25.825Z,5.03
2017-12-21T19:02:54.106Z,1.90
2017-12-21T19:05:22.405Z,3.13
2017-12-21T19:07:50.651Z,1.80
2017-12-21T19:10:19.702Z,2.20
2017-12-21T19:12:47.955Z,2.10
2017-12-21T19:15:16.981Z,2.10
2017-12-21T19:17:45.270Z,1.90
2017-12-21T19:20:13.575Z,1.70
2017-12-21T19:22:41.876Z,2.00
2017-12-21T19:25:10.226Z,1.90
2017-12-21T19:27:38.579Z,2.07
2017-12-21T19:30:06.964Z,1.90
2017-12-21T19:32:35.226Z,1.60
2017-12-21T19:35:03.479Z,2.00
2017-12-21T19:37:32.528Z,1.93
2017-12-21T19:40:00.833Z,2.33
2017-12-21T19:42:29.120Z,1.73
2017-12-21T19:44:57.454Z,1.90
2017-12-21T19:47:26.508Z,1.90
2017-12-21T19:49:55.570Z,2.10
2017-12-21T19:52:24.623Z,1.70
2017-12-21T19:54:52.925Z,2.20
2017-12-21T19:57:21.215Z,2.40
2017-12-21T19:59:49.498Z,2.00
2017-12-21T20:02:17.809Z,2.40
2017-12-21T20:04:46.090Z,1.70
2017-12-21T20:07:14.434Z,2.20
2017-12-21T20:09:42.743Z,2.10
2017-12-21T20:12:11.079Z,2.03
2017-12-21T20:14:39.338Z,2.10
2017-12-21T20:17:08.452Z,2.00
2017-12-21T20:19:36.850Z,1.90
2017-12-21T20:22:05.175Z,1.77
2017-12-21T20:24:34.222Z,2.13
2017-12-21T20:27:02.487Z,2.10
2017-12-21T20:29:30.780Z,2.47
2017-12-21T20:31:59.036Z,2.40
2017-12-21T20:34:28.107Z,2.40
2017-12-21T20:36:56.424Z,1.77
2017-12-21T20:39:24.694Z,2.07
2017-12-21T20:41:52.998Z,1.90
2017-12-21T20:44:21.311Z,2.00
2017-12-21T20:46:50.340Z,1.80
2017-12-21T20:49:18.626Z,1.80
2017-12-21T20:51:47.755Z,1.70
2017-12-21T20:54:15.990Z,2.20
2017-12-21T20:56:44.308Z,1.50
2017-12-21T20:59:13.913Z,1.60
2017-12-21T21:01:42.282Z,1.90
2017-12-21T21:04:10.698Z,2.10
2017-12-21T21:06:39.841Z,2.10
2017-12-21T21:09:08.386Z,2.20
2017-12-21T21:11:36.730Z,2.20
2017-12-21T21:14:05.166Z,1.90
2017-12-21T21:16:33.599Z,2.20
2017-12-21T21:19:01.897Z,2.00
2017-12-21T21:21:30.199Z,2.20
2017-12-21T21:23:58.498Z,1.83
2017-12-21T21:26:26.828Z,2.10
2017-12-21T21:28:56.083Z,6.80
2017-12-21T21:31:25.150Z,2.07
2017-12-21T21:33:53.482Z,2.70
2017-12-21T21:36:21.821Z,3.33
2017-12-21T21:38:50.888Z,2.27
2017-12-21T21:41:19.179Z,2.50
2017-12-21T21:43:47.516Z,2.20
2017-12-21T21:46:15.759Z,2.00
2017-12-21T21:48:44.843Z,2.80
2017-12-21T21:51:13.137Z,2.10
2017-12-21T21:53:41.591Z,2.47
2017-12-21T21:56:09.886Z,2.80
2017-12-21T21:58:38.267Z,2.97
2017-12-21T22:01:06.554Z,2.50
2017-12-21T22:03:34.884Z,3.10
2017-12-21T22:06:03.297Z,2.90
2017-12-21T22:08:31.906Z,3.30
2017-12-21T22:11:00.262Z,3.00
2017-12-21T22:13:28.526Z,3.07
2017-12-21T22:15:56.827Z,2.93
2017-12-21T22:18:25.131Z,2.83
2017-12-21T22:20:53.365Z,2.57
2017-12-21T22:23:21.756Z,2.80
2017-12-21T22:25:50.822Z,2.63
2017-12-21T22:28:19.125Z,2.83
2017-12-21T22:30:47.610Z,2.60
2017-12-21T22:33:15.896Z,2.57
2017-12-21T22:35:44.246Z,3.43
2017-12-21T22:38:12.681Z,3.50
2017-12-21T22:40:40.923Z,3.30
2017-12-21T22:43:09.291Z,3.30
2017-12-21T22:45:37.642Z,3.20
2017-12-21T22:48:06.808Z,3.17
2017-12-21T22:50:35.966Z,3.40
2017-12-21T22:53:04.263Z,3.70
2017-12-21T22:55:32.590Z,3.50
2017-12-21T22:58:00.874Z,3.33
2017-12-21T23:00:29.215Z,3.53
2017-12-21T23:02:58.272Z,3.70
2017-12-21T23:05:27.428Z,3.33
2017-12-21T23:07:55.744Z,3.53
2017-12-21T23:10:24.128Z,4.13
2017-12-21T23:12:52.469Z,4.23
2017-12-21T23:15:20.999Z,3.97
2017-12-21T23:17:50.086Z,4.20
2017-12-21T23:20:18.500Z,4.00
2017-12-21T23:22:46.863Z,4.10
2017-12-21T23:25:15.189Z,4.20
2017-12-21T23:27:44.241Z,3.53
2017-12-21T23:30:12.553Z,3.70
2017-12-21T23:32:40.856Z,3.97
2017-12-21T23:35:09.174Z,3.07
2017-12-21T23:37:37.410Z,2.60
2017-12-21T23:40:06.319Z,2.70
2017-12-21T23:42:34.593Z,3.17
2017-12-21T23:45:02.883Z,2.90
2017-12-21T23:47:31.182Z,2.60
2017-12-21T23:49:59.444Z,3.53
2017-12-21T23:52:27.691Z,2.20
2017-12-21T23:54:56.761Z,2.33
2017-12-21T23:57:25.047Z,2.63
2017-12-21T23:59:53.301Z,2.60
